AAL1887 KJFK-TNCM
Flight info
| Callsign | AAL1887 |
|---|---|
| Flight time | 3h 7m |
| Altitude | 41000 |
| Route | SHIPP Y492 SQUAD/M084F410 DCT DARUX L456 HANCY/N0478F410 L456 THANK DCT SLUGO ULUBA1 |
| Aircraft | B789/H-SDE1E2E3FGHIJ2J3J4J5M1RWXY/LB1D1 |
Departure
| Time | 2026-05-09 13:38 |
|---|---|
| Airport | John F. Kennedy International Airport (KJFK) |
Arrival
| Time | 2026-05-09 16:45 |
|---|---|
| Airport | Princess Juliana International Airport (TNCM) |
| Time | Latitude | Longitude | Altitude | Speed | Heading |
|---|---|---|---|---|---|
| 2026-05-09 13:02 | 40.64911 | -73.79057 | 23 ft | 0 kts | 151° |
| 2026-05-09 13:25 | 40.64932 | -73.79072 | 29 ft | 4 kts | 148° |
| 2026-05-09 13:26 | 40.64950 | -73.79094 | 29 ft | 4 kts | 110° |
| 2026-05-09 13:26 | 40.64952 | -73.79127 | 29 ft | 4 kts | 71° |
| 2026-05-09 13:26 | 40.64946 | -73.79147 | 29 ft | 1 kts | 60° |
| 2026-05-09 13:26 | 40.64945 | -73.79149 | 29 ft | 0 kts | 60° |
| 2026-05-09 13:30 | 40.64949 | -73.79139 | 29 ft | 6 kts | 60° |
| 2026-05-09 13:30 | 40.64977 | -73.79075 | 28 ft | 9 kts | 61° |
| 2026-05-09 13:31 | 40.65011 | -73.78994 | 24 ft | 11 kts | 61° |
| 2026-05-09 13:31 | 40.65061 | -73.78924 | 28 ft | 9 kts | 22° |
| 2026-05-09 13:31 | 40.65120 | -73.78899 | 31 ft | 8 kts | 40° |
| 2026-05-09 13:31 | 40.65139 | -73.78823 | 30 ft | 9 kts | 79° |
| 2026-05-09 13:32 | 40.65156 | -73.78734 | 29 ft | 11 kts | 69° |
| 2026-05-09 13:32 | 40.65261 | -73.78393 | 29 ft | 22 kts | 102° |
| 2026-05-09 13:32 | 40.65190 | -73.78212 | 32 ft | 22 kts | 120° |
| 2026-05-09 13:33 | 40.65110 | -73.78035 | 31 ft | 23 kts | 121° |
| 2026-05-09 13:33 | 40.65028 | -73.77853 | 31 ft | 23 kts | 121° |
| 2026-05-09 13:33 | 40.64944 | -73.77669 | 30 ft | 24 kts | 121° |
| 2026-05-09 13:33 | 40.64916 | -73.77535 | 28 ft | 9 kts | 57° |
| 2026-05-09 13:34 | 40.64974 | -73.77469 | 31 ft | 15 kts | 39° |
| 2026-05-09 13:34 | 40.65073 | -73.77409 | 29 ft | 16 kts | 24° |
| 2026-05-09 13:34 | 40.65131 | -73.77331 | 28 ft | 7 kts | 94° |
| 2026-05-09 13:34 | 40.65089 | -73.77225 | 32 ft | 15 kts | 121° |
| 2026-05-09 13:35 | 40.65035 | -73.77106 | 27 ft | 16 kts | 121° |
| 2026-05-09 13:35 | 40.64977 | -73.76977 | 27 ft | 17 kts | 121° |
| 2026-05-09 13:35 | 40.64938 | -73.76889 | 27 ft | 1 kts | 114° |
| 2026-05-09 13:35 | 40.64912 | -73.76834 | 27 ft | 10 kts | 122° |
| 2026-05-09 13:36 | 40.64874 | -73.76735 | 27 ft | 12 kts | 99° |
| 2026-05-09 13:36 | 40.64911 | -73.76672 | 27 ft | 13 kts | 31° |
| 2026-05-09 13:36 | 40.65009 | -73.76596 | 27 ft | 18 kts | 31° |
| 2026-05-09 13:36 | 40.65097 | -73.76506 | 27 ft | 12 kts | 68° |
| 2026-05-09 13:37 | 40.65094 | -73.76468 | 27 ft | 1 kts | 105° |
| 2026-05-09 13:37 | 40.65073 | -73.76413 | 28 ft | 9 kts | 120° |
| 2026-05-09 13:37 | 40.65026 | -73.76364 | 28 ft | 8 kts | 168° |
| 2026-05-09 13:37 | 40.64984 | -73.76385 | 28 ft | 16 kts | 207° |
| 2026-05-09 13:38 | 40.64734 | -73.76581 | 27 ft | 74 kts | 211° |
| 2026-05-09 13:38 | 40.64092 | -73.77084 | 28 ft | 138 kts | 211° |
| 2026-05-09 13:38 | 40.63134 | -73.77865 | 256 ft | 172 kts | 217° |
| 2026-05-09 13:38 | 40.62101 | -73.78715 | 1120 ft | 177 kts | 212° |
| 2026-05-09 13:39 | 40.61071 | -73.79523 | 2285 ft | 169 kts | 213° |
| 2026-05-09 13:39 | 40.60028 | -73.80332 | 3098 ft | 176 kts | 213° |
| 2026-05-09 13:39 | 40.58873 | -73.80838 | 4006 ft | 186 kts | 184° |
| 2026-05-09 13:39 | 40.57673 | -73.79974 | 4738 ft | 222 kts | 137° |
| 2026-05-09 13:40 | 40.57082 | -73.77944 | 5235 ft | 262 kts | 102° |
| 2026-05-09 13:40 | 40.56931 | -73.75493 | 6248 ft | 265 kts | 98° |
| 2026-05-09 13:40 | 40.56844 | -73.73012 | 7146 ft | 278 kts | 97° |
| 2026-05-09 13:40 | 40.56767 | -73.70452 | 7867 ft | 282 kts | 98° |
| 2026-05-09 13:41 | 40.56192 | -73.68008 | 8414 ft | 281 kts | 134° |
| 2026-05-09 13:41 | 40.54898 | -73.66152 | 9613 ft | 277 kts | 141° |
| 2026-05-09 13:41 | 40.53549 | -73.64271 | 10369 ft | 292 kts | 137° |
| 2026-05-09 13:41 | 40.52277 | -73.62017 | 10691 ft | 323 kts | 129° |
| 2026-05-09 13:42 | 40.51031 | -73.59406 | 10972 ft | 349 kts | 127° |
| 2026-05-09 13:42 | 40.49693 | -73.56713 | 11827 ft | 352 kts | 129° |
| 2026-05-09 13:42 | 40.48272 | -73.54036 | 12601 ft | 360 kts | 130° |
| 2026-05-09 13:42 | 40.46840 | -73.51343 | 13381 ft | 368 kts | 130° |
| 2026-05-09 13:43 | 40.45380 | -73.48525 | 14122 ft | 375 kts | 129° |
| 2026-05-09 13:43 | 40.43893 | -73.45643 | 14814 ft | 383 kts | 129° |
| 2026-05-09 13:43 | 40.42397 | -73.42778 | 15482 ft | 389 kts | 130° |
| 2026-05-09 13:43 | 40.40843 | -73.39819 | 16162 ft | 397 kts | 130° |
| 2026-05-09 13:44 | 40.39270 | -73.36810 | 16856 ft | 404 kts | 130° |
| 2026-05-09 13:44 | 40.37669 | -73.33744 | 17528 ft | 411 kts | 130° |
| 2026-05-09 13:44 | 40.36029 | -73.30613 | 18181 ft | 417 kts | 130° |
| 2026-05-09 13:44 | 40.34372 | -73.27454 | 18788 ft | 422 kts | 130° |
| 2026-05-09 13:45 | 40.32706 | -73.24251 | 19422 ft | 426 kts | 128° |
| 2026-05-09 13:45 | 40.31127 | -73.20991 | 19990 ft | 430 kts | 128° |
| 2026-05-09 13:45 | 40.29457 | -73.17707 | 20596 ft | 433 kts | 129° |
| 2026-05-09 13:45 | 40.27784 | -73.14401 | 21173 ft | 437 kts | 128° |
| 2026-05-09 13:46 | 40.26123 | -73.11043 | 21746 ft | 441 kts | 128° |
| 2026-05-09 13:46 | 40.24449 | -73.07656 | 22299 ft | 444 kts | 128° |
| 2026-05-09 13:46 | 40.22762 | -73.04292 | 22824 ft | 447 kts | 128° |
| 2026-05-09 13:46 | 40.21046 | -73.00878 | 23359 ft | 451 kts | 128° |
| 2026-05-09 13:47 | 40.19318 | -72.97426 | 23818 ft | 454 kts | 128° |
| 2026-05-09 13:47 | 40.17585 | -72.93959 | 24244 ft | 457 kts | 128° |
| 2026-05-09 13:47 | 40.15836 | -72.90474 | 24676 ft | 459 kts | 128° |
| 2026-05-09 13:47 | 40.14070 | -72.86964 | 25079 ft | 462 kts | 128° |
| 2026-05-09 13:48 | 40.12300 | -72.83447 | 25484 ft | 464 kts | 128° |
| 2026-05-09 13:48 | 40.10523 | -72.79911 | 25889 ft | 467 kts | 127° |
| 2026-05-09 13:48 | 40.08867 | -72.76232 | 26259 ft | 472 kts | 125° |
| 2026-05-09 13:48 | 40.07209 | -72.72584 | 26659 ft | 474 kts | 125° |
| 2026-05-09 13:49 | 40.05489 | -72.68839 | 26656 ft | 487 kts | 125° |
| 2026-05-09 13:49 | 40.03745 | -72.64989 | 26665 ft | 498 kts | 124° |
| 2026-05-09 13:49 | 40.01977 | -72.61057 | 26682 ft | 508 kts | 124° |
| 2026-05-09 13:49 | 40.00158 | -72.57044 | 26699 ft | 517 kts | 124° |
| 2026-05-09 13:50 | 39.98298 | -72.52971 | 26718 ft | 525 kts | 124° |
| 2026-05-09 13:50 | 39.96417 | -72.48845 | 26732 ft | 533 kts | 124° |
| 2026-05-09 13:50 | 39.94554 | -72.44631 | 26749 ft | 540 kts | 123° |
| 2026-05-09 13:50 | 39.92711 | -72.40332 | 26934 ft | 543 kts | 123° |
| 2026-05-09 13:51 | 39.90846 | -72.36057 | 27290 ft | 541 kts | 123° |
| 2026-05-09 13:51 | 39.88980 | -72.31877 | 27624 ft | 540 kts | 124° |
| 2026-05-09 13:51 | 39.87095 | -72.27641 | 27978 ft | 540 kts | 123° |
| 2026-05-09 13:51 | 39.85228 | -72.23388 | 28350 ft | 540 kts | 123° |
| 2026-05-09 13:52 | 39.83365 | -72.19153 | 28743 ft | 539 kts | 123° |
| 2026-05-09 13:52 | 39.81487 | -72.14927 | 29144 ft | 538 kts | 124° |
| 2026-05-09 13:52 | 39.79609 | -72.10713 | 29595 ft | 537 kts | 124° |
| 2026-05-09 13:52 | 39.77743 | -72.06509 | 30052 ft | 536 kts | 123° |
| 2026-05-09 13:53 | 39.75880 | -72.02309 | 30449 ft | 536 kts | 124° |
| 2026-05-09 13:53 | 39.74013 | -71.98123 | 30781 ft | 537 kts | 124° |
| 2026-05-09 13:53 | 39.72096 | -71.93959 | 31123 ft | 537 kts | 126° |
| 2026-05-09 13:53 | 39.70155 | -71.89877 | 31468 ft | 538 kts | 126° |
| 2026-05-09 13:54 | 39.68207 | -71.85727 | 31835 ft | 539 kts | 126° |
| 2026-05-09 13:54 | 39.66277 | -71.81533 | 32201 ft | 541 kts | 126° |
| 2026-05-09 13:54 | 39.64335 | -71.77342 | 32571 ft | 542 kts | 127° |
| 2026-05-09 13:54 | 39.62367 | -71.73157 | 32955 ft | 543 kts | 127° |
| 2026-05-09 13:55 | 39.60394 | -71.68962 | 33352 ft | 545 kts | 127° |
| 2026-05-09 13:55 | 39.58427 | -71.64749 | 33747 ft | 547 kts | 128° |
| 2026-05-09 13:55 | 39.56449 | -71.60518 | 34126 ft | 548 kts | 128° |
| 2026-05-09 13:55 | 39.54481 | -71.56333 | 34476 ft | 549 kts | 128° |
| 2026-05-09 13:56 | 39.52489 | -71.52106 | 34871 ft | 549 kts | 128° |
| 2026-05-09 13:56 | 39.50491 | -71.47862 | 35259 ft | 549 kts | 128° |
| 2026-05-09 13:56 | 39.48496 | -71.43627 | 35630 ft | 550 kts | 128° |
| 2026-05-09 13:56 | 39.46525 | -71.39464 | 36016 ft | 549 kts | 130° |
| 2026-05-09 13:57 | 39.44254 | -71.35572 | 36400 ft | 536 kts | 141° |
| 2026-05-09 13:57 | 39.41586 | -71.32268 | 36778 ft | 522 kts | 152° |
| 2026-05-09 13:57 | 39.38654 | -71.29625 | 37168 ft | 507 kts | 161° |
| 2026-05-09 13:57 | 39.35533 | -71.27633 | 37558 ft | 493 kts | 169° |
| 2026-05-09 13:58 | 39.32352 | -71.25955 | 37892 ft | 494 kts | 169° |
| 2026-05-09 13:58 | 39.29150 | -71.24278 | 38045 ft | 498 kts | 169° |
| 2026-05-09 13:58 | 39.25969 | -71.22631 | 38431 ft | 497 kts | 169° |
| 2026-05-09 13:58 | 39.22750 | -71.20961 | 38822 ft | 497 kts | 169° |
| 2026-05-09 13:59 | 39.19540 | -71.19289 | 39115 ft | 497 kts | 169° |
| 2026-05-09 13:59 | 39.16360 | -71.17637 | 39386 ft | 497 kts | 169° |
| 2026-05-09 13:59 | 39.13144 | -71.15973 | 39658 ft | 497 kts | 169° |
| 2026-05-09 13:59 | 39.09929 | -71.14310 | 39933 ft | 498 kts | 169° |
| 2026-05-09 14:00 | 39.07803 | -71.13209 | 40115 ft | 498 kts | 169° |
| 2026-05-09 14:00 | 39.05630 | -71.12085 | 40290 ft | 498 kts | 168° |
| 2026-05-09 14:00 | 39.01360 | -71.09878 | 40653 ft | 499 kts | 168° |
| 2026-05-09 14:00 | 38.98128 | -71.08212 | 40916 ft | 499 kts | 168° |
| 2026-05-09 14:01 | 38.94894 | -71.06545 | 41101 ft | 502 kts | 168° |
| 2026-05-09 14:01 | 38.91630 | -71.04868 | 41098 ft | 505 kts | 168° |
| 2026-05-09 14:01 | 38.85152 | -71.01526 | 41095 ft | 501 kts | 168° |
| 2026-05-09 14:02 | 38.78718 | -70.98232 | 41104 ft | 500 kts | 168° |
| 2026-05-09 14:02 | 38.72246 | -70.94915 | 41110 ft | 500 kts | 168° |
| 2026-05-09 14:03 | 38.65772 | -70.91606 | 41111 ft | 501 kts | 169° |
| 2026-05-09 14:03 | 38.59298 | -70.88302 | 41109 ft | 500 kts | 169° |
| 2026-05-09 14:04 | 38.52860 | -70.85025 | 41112 ft | 501 kts | 169° |
| 2026-05-09 14:04 | 38.46354 | -70.81719 | 41119 ft | 502 kts | 169° |
| 2026-05-09 14:05 | 38.39853 | -70.78421 | 41125 ft | 503 kts | 169° |
| 2026-05-09 14:05 | 38.33373 | -70.75140 | 41120 ft | 504 kts | 169° |
| 2026-05-09 14:06 | 38.26841 | -70.71840 | 41121 ft | 503 kts | 169° |
| 2026-05-09 14:06 | 38.20322 | -70.68552 | 41123 ft | 502 kts | 169° |
| 2026-05-09 14:07 | 38.13860 | -70.65300 | 41122 ft | 502 kts | 169° |
| 2026-05-09 14:07 | 38.07343 | -70.62027 | 41127 ft | 503 kts | 169° |
| 2026-05-09 14:08 | 38.00874 | -70.58782 | 41129 ft | 503 kts | 169° |
| 2026-05-09 14:08 | 37.94473 | -70.54872 | 41139 ft | 511 kts | 164° |
| 2026-05-09 14:09 | 37.88087 | -70.50884 | 41138 ft | 512 kts | 164° |
| 2026-05-09 14:09 | 37.81858 | -70.46958 | 41131 ft | 512 kts | 164° |
| 2026-05-09 14:10 | 37.72273 | -70.40966 | 41136 ft | 512 kts | 164° |
| 2026-05-09 14:11 | 37.65930 | -70.37002 | 41138 ft | 510 kts | 164° |
| 2026-05-09 14:11 | 37.59552 | -70.33030 | 41139 ft | 510 kts | 164° |
| 2026-05-09 14:12 | 37.53170 | -70.29059 | 41143 ft | 511 kts | 164° |
| 2026-05-09 14:12 | 37.46830 | -70.25122 | 41147 ft | 511 kts | 164° |
| 2026-05-09 14:13 | 37.40448 | -70.21167 | 41147 ft | 511 kts | 164° |
| 2026-05-09 14:15 | 37.14926 | -70.05427 | 41162 ft | 512 kts | 165° |
| 2026-05-09 14:15 | 37.08508 | -70.01488 | 41160 ft | 512 kts | 165° |
| 2026-05-09 14:16 | 37.02142 | -69.97587 | 41164 ft | 512 kts | 165° |
| 2026-05-09 14:16 | 36.95723 | -69.93662 | 41177 ft | 512 kts | 165° |
| 2026-05-09 14:17 | 36.89301 | -69.89741 | 41159 ft | 512 kts | 165° |
| 2026-05-09 14:17 | 36.82901 | -69.85843 | 41162 ft | 510 kts | 165° |
| 2026-05-09 14:18 | 36.76560 | -69.81987 | 41170 ft | 510 kts | 165° |
| 2026-05-09 14:18 | 36.70158 | -69.78102 | 41166 ft | 511 kts | 165° |
| 2026-05-09 14:19 | 36.63757 | -69.74223 | 41169 ft | 511 kts | 165° |
| 2026-05-09 14:19 | 36.57386 | -69.70371 | 41172 ft | 511 kts | 165° |
| 2026-05-09 14:20 | 36.50976 | -69.66502 | 41165 ft | 512 kts | 165° |
| 2026-05-09 14:20 | 36.44567 | -69.62640 | 41175 ft | 511 kts | 165° |
| 2026-05-09 14:21 | 36.34987 | -69.56883 | 41173 ft | 511 kts | 165° |
| 2026-05-09 14:21 | 36.28578 | -69.53038 | 41180 ft | 511 kts | 165° |
| 2026-05-09 14:22 | 36.22166 | -69.49202 | 41176 ft | 512 kts | 165° |
| 2026-05-09 14:22 | 36.15735 | -69.45624 | 41200 ft | 500 kts | 174° |
| 2026-05-09 14:23 | 36.12403 | -69.44548 | 41206 ft | 489 kts | 179° |
| 2026-05-09 14:23 | 36.09063 | -69.43639 | 41187 ft | 491 kts | 179° |
| 2026-05-09 14:23 | 36.02362 | -69.41824 | 41187 ft | 491 kts | 179° |
| 2026-05-09 14:24 | 35.95721 | -69.40040 | 41185 ft | 491 kts | 179° |
| 2026-05-09 14:24 | 35.89018 | -69.38234 | 41180 ft | 492 kts | 179° |
| 2026-05-09 14:25 | 35.82299 | -69.36432 | 41184 ft | 494 kts | 179° |
| 2026-05-09 14:25 | 35.75598 | -69.34634 | 41182 ft | 495 kts | 179° |
| 2026-05-09 14:26 | 35.68835 | -69.32825 | 41182 ft | 497 kts | 179° |
| 2026-05-09 14:26 | 35.62090 | -69.31023 | 41183 ft | 499 kts | 179° |
| 2026-05-09 14:27 | 35.55283 | -69.29207 | 41185 ft | 500 kts | 179° |
| 2026-05-09 14:27 | 35.48474 | -69.27397 | 41192 ft | 505 kts | 179° |
| 2026-05-09 14:28 | 35.41519 | -69.25552 | 41201 ft | 517 kts | 179° |
| 2026-05-09 14:28 | 35.34443 | -69.23667 | 41193 ft | 521 kts | 179° |
| 2026-05-09 14:29 | 35.27399 | -69.21805 | 41195 ft | 521 kts | 179° |
| 2026-05-09 14:29 | 35.20290 | -69.19925 | 41211 ft | 523 kts | 179° |
| 2026-05-09 14:30 | 35.13159 | -69.18043 | 41191 ft | 523 kts | 179° |
| 2026-05-09 14:30 | 35.06073 | -69.16178 | 41191 ft | 524 kts | 179° |
| 2026-05-09 14:31 | 34.98923 | -69.14297 | 41192 ft | 524 kts | 179° |
| 2026-05-09 14:31 | 34.91782 | -69.12424 | 41196 ft | 525 kts | 179° |
| 2026-05-09 14:32 | 34.84668 | -69.10559 | 41191 ft | 525 kts | 179° |
| 2026-05-09 14:32 | 34.77512 | -69.08688 | 41190 ft | 525 kts | 179° |
| 2026-05-09 14:33 | 34.70394 | -69.06830 | 41193 ft | 525 kts | 179° |
| 2026-05-09 14:33 | 34.63240 | -69.04965 | 41193 ft | 525 kts | 179° |
| 2026-05-09 14:34 | 34.56082 | -69.03104 | 41186 ft | 525 kts | 178° |
| 2026-05-09 14:34 | 34.48965 | -69.01256 | 41189 ft | 525 kts | 178° |
| 2026-05-09 14:35 | 34.41827 | -68.99404 | 41188 ft | 523 kts | 178° |
| 2026-05-09 14:35 | 34.34704 | -68.97561 | 41188 ft | 522 kts | 178° |
| 2026-05-09 14:36 | 34.27644 | -68.95738 | 41190 ft | 521 kts | 178° |
| 2026-05-09 14:36 | 34.20545 | -68.93907 | 41187 ft | 520 kts | 178° |
| 2026-05-09 14:37 | 34.13452 | -68.92081 | 41189 ft | 519 kts | 178° |
| 2026-05-09 14:37 | 34.06436 | -68.90278 | 41197 ft | 517 kts | 178° |
| 2026-05-09 14:38 | 33.99375 | -68.88467 | 41191 ft | 517 kts | 178° |
| 2026-05-09 14:38 | 33.92361 | -68.86671 | 41189 ft | 518 kts | 178° |
| 2026-05-09 14:39 | 33.85285 | -68.84861 | 41195 ft | 518 kts | 178° |
| 2026-05-09 14:39 | 33.78234 | -68.83062 | 41188 ft | 518 kts | 178° |
| 2026-05-09 14:40 | 33.71228 | -68.81277 | 41197 ft | 518 kts | 178° |
| 2026-05-09 14:40 | 33.64159 | -68.79479 | 41193 ft | 519 kts | 178° |
| 2026-05-09 14:41 | 33.57106 | -68.77687 | 41180 ft | 517 kts | 178° |
| 2026-05-09 14:41 | 33.50048 | -68.75899 | 41186 ft | 517 kts | 178° |
| 2026-05-09 14:42 | 33.43037 | -68.74124 | 41186 ft | 518 kts | 178° |
| 2026-05-09 14:42 | 33.35971 | -68.72338 | 41185 ft | 519 kts | 178° |
| 2026-05-09 14:43 | 33.28886 | -68.70552 | 41189 ft | 519 kts | 178° |
| 2026-05-09 14:43 | 33.21851 | -68.68780 | 41190 ft | 520 kts | 178° |
| 2026-05-09 14:44 | 33.14751 | -68.66994 | 41190 ft | 520 kts | 178° |
| 2026-05-09 14:44 | 33.07666 | -68.65217 | 41189 ft | 521 kts | 178° |
| 2026-05-09 14:45 | 33.00573 | -68.63438 | 41180 ft | 520 kts | 178° |
| 2026-05-09 14:45 | 32.93525 | -68.61675 | 41180 ft | 519 kts | 178° |
| 2026-05-09 14:46 | 32.86454 | -68.59909 | 41180 ft | 519 kts | 178° |
| 2026-05-09 14:46 | 32.79396 | -68.58149 | 41176 ft | 520 kts | 178° |
| 2026-05-09 14:47 | 32.73501 | -68.56680 | 41177 ft | 520 kts | 178° |
| 2026-05-09 14:47 | 32.66414 | -68.54919 | 41178 ft | 520 kts | 178° |
| 2026-05-09 14:48 | 32.59325 | -68.53159 | 41176 ft | 520 kts | 178° |
| 2026-05-09 14:48 | 32.52276 | -68.51412 | 41176 ft | 520 kts | 178° |
| 2026-05-09 14:49 | 32.45148 | -68.49649 | 41175 ft | 522 kts | 178° |
| 2026-05-09 14:49 | 32.38025 | -68.47888 | 41168 ft | 522 kts | 178° |
| 2026-05-09 14:50 | 32.30948 | -68.46144 | 41172 ft | 523 kts | 178° |
| 2026-05-09 14:50 | 32.23788 | -68.44381 | 41172 ft | 525 kts | 178° |
| 2026-05-09 14:51 | 32.16622 | -68.42619 | 41168 ft | 526 kts | 178° |
| 2026-05-09 14:51 | 32.09491 | -68.40868 | 41164 ft | 526 kts | 178° |
| 2026-05-09 14:52 | 32.02313 | -68.39109 | 41182 ft | 526 kts | 178° |
| 2026-05-09 14:52 | 31.95127 | -68.37351 | 41176 ft | 526 kts | 178° |
| 2026-05-09 14:53 | 31.87979 | -68.35605 | 41166 ft | 527 kts | 178° |
| 2026-05-09 14:53 | 31.80789 | -68.33851 | 41171 ft | 527 kts | 178° |
| 2026-05-09 14:54 | 31.73618 | -68.32106 | 41169 ft | 529 kts | 178° |
| 2026-05-09 14:54 | 31.66389 | -68.30347 | 41173 ft | 529 kts | 178° |
| 2026-05-09 14:55 | 31.59163 | -68.28594 | 41165 ft | 530 kts | 178° |
| 2026-05-09 14:55 | 31.51986 | -68.26854 | 41172 ft | 530 kts | 178° |
| 2026-05-09 14:56 | 31.44765 | -68.25107 | 41165 ft | 529 kts | 178° |
| 2026-05-09 14:56 | 31.37552 | -68.23365 | 41162 ft | 529 kts | 178° |
| 2026-05-09 14:57 | 31.30340 | -68.21625 | 41158 ft | 529 kts | 178° |
| 2026-05-09 14:57 | 31.23161 | -68.19896 | 41160 ft | 529 kts | 178° |
| 2026-05-09 14:58 | 31.15915 | -68.18155 | 41162 ft | 530 kts | 177° |
| 2026-05-09 14:58 | 31.08674 | -68.16415 | 41162 ft | 530 kts | 177° |
| 2026-05-09 14:59 | 31.01496 | -68.14696 | 41164 ft | 528 kts | 177° |
| 2026-05-09 14:59 | 30.94271 | -68.12967 | 41166 ft | 528 kts | 177° |
| 2026-05-09 15:00 | 30.87088 | -68.11250 | 41156 ft | 528 kts | 177° |
| 2026-05-09 15:00 | 30.79876 | -68.09530 | 41156 ft | 528 kts | 177° |
| 2026-05-09 15:01 | 30.69115 | -68.06968 | 41154 ft | 528 kts | 177° |
| 2026-05-09 15:02 | 30.61908 | -68.05254 | 41158 ft | 528 kts | 177° |
| 2026-05-09 15:02 | 30.54680 | -68.03540 | 41154 ft | 529 kts | 177° |
| 2026-05-09 15:03 | 30.47487 | -68.01835 | 41153 ft | 529 kts | 177° |
| 2026-05-09 15:03 | 30.40270 | -68.00128 | 41150 ft | 529 kts | 177° |
| 2026-05-09 15:04 | 30.33041 | -67.98420 | 41148 ft | 529 kts | 177° |
| 2026-05-09 15:06 | 30.04185 | -67.91630 | 41157 ft | 532 kts | 176° |
| 2026-05-09 15:06 | 29.96927 | -67.89927 | 41147 ft | 531 kts | 176° |
| 2026-05-09 15:07 | 29.89672 | -67.88229 | 41162 ft | 531 kts | 176° |
| 2026-05-09 15:07 | 29.82459 | -67.86543 | 41149 ft | 531 kts | 176° |
| 2026-05-09 15:08 | 29.75199 | -67.84848 | 41149 ft | 532 kts | 176° |
| 2026-05-09 15:08 | 29.64355 | -67.82321 | 41151 ft | 531 kts | 176° |
| 2026-05-09 15:10 | 29.35419 | -67.75606 | 41151 ft | 530 kts | 176° |
| 2026-05-09 15:11 | 29.28182 | -67.73933 | 41151 ft | 530 kts | 176° |
| 2026-05-09 15:11 | 29.20937 | -67.72260 | 41150 ft | 530 kts | 176° |
| 2026-05-09 15:12 | 29.13735 | -67.70600 | 41152 ft | 531 kts | 175° |
| 2026-05-09 15:12 | 29.06484 | -67.68930 | 41158 ft | 531 kts | 175° |
| 2026-05-09 15:13 | 28.99228 | -67.67262 | 41153 ft | 531 kts | 175° |
| 2026-05-09 15:13 | 28.91968 | -67.65596 | 41169 ft | 531 kts | 175° |
| 2026-05-09 15:14 | 28.84747 | -67.63940 | 41158 ft | 531 kts | 175° |
| 2026-05-09 15:14 | 28.77490 | -67.62279 | 41160 ft | 531 kts | 175° |
| 2026-05-09 15:15 | 28.71461 | -67.60901 | 41155 ft | 531 kts | 175° |
| 2026-05-09 15:15 | 28.63008 | -67.58971 | 41154 ft | 532 kts | 175° |
| 2026-05-09 15:16 | 28.55743 | -67.57315 | 41157 ft | 532 kts | 175° |
| 2026-05-09 15:16 | 28.48472 | -67.55660 | 41158 ft | 532 kts | 175° |
| 2026-05-09 15:17 | 28.41197 | -67.54007 | 41153 ft | 533 kts | 175° |
| 2026-05-09 15:17 | 28.33957 | -67.52363 | 41159 ft | 533 kts | 175° |
| 2026-05-09 15:18 | 28.26676 | -67.50713 | 41153 ft | 533 kts | 175° |
| 2026-05-09 15:18 | 28.19375 | -67.49061 | 41155 ft | 533 kts | 175° |
| 2026-05-09 15:19 | 28.12154 | -67.47428 | 41155 ft | 532 kts | 175° |
| 2026-05-09 15:19 | 28.04876 | -67.45786 | 41158 ft | 533 kts | 174° |
| 2026-05-09 15:20 | 27.94003 | -67.43336 | 41153 ft | 532 kts | 174° |
| 2026-05-09 15:21 | 27.86735 | -67.41702 | 41154 ft | 532 kts | 174° |
| 2026-05-09 15:21 | 27.79465 | -67.40068 | 41154 ft | 532 kts | 174° |
| 2026-05-09 15:22 | 27.72237 | -67.38447 | 41155 ft | 532 kts | 174° |
| 2026-05-09 15:22 | 27.64956 | -67.36816 | 41154 ft | 532 kts | 174° |
| 2026-05-09 15:23 | 27.57678 | -67.35188 | 41156 ft | 532 kts | 174° |
| 2026-05-09 15:23 | 27.50448 | -67.33573 | 41157 ft | 531 kts | 174° |
| 2026-05-09 15:24 | 27.43186 | -67.31953 | 41153 ft | 532 kts | 174° |
| 2026-05-09 15:24 | 27.35965 | -67.30344 | 41155 ft | 531 kts | 174° |
| 2026-05-09 15:25 | 27.28689 | -67.28725 | 41155 ft | 532 kts | 174° |
| 2026-05-09 15:25 | 27.21412 | -67.27108 | 41157 ft | 533 kts | 174° |
| 2026-05-09 15:26 | 27.10530 | -67.24694 | 41154 ft | 533 kts | 174° |
| 2026-05-09 15:26 | 27.03227 | -67.23076 | 41154 ft | 534 kts | 174° |
| 2026-05-09 15:27 | 26.95926 | -67.21462 | 41152 ft | 534 kts | 174° |
| 2026-05-09 15:27 | 26.88671 | -67.19859 | 41153 ft | 534 kts | 174° |
| 2026-05-09 15:28 | 26.81359 | -67.18247 | 41157 ft | 534 kts | 174° |
| 2026-05-09 15:28 | 26.74057 | -67.16638 | 41154 ft | 535 kts | 174° |
| 2026-05-09 15:29 | 26.66785 | -67.15038 | 41153 ft | 535 kts | 174° |
| 2026-05-09 15:29 | 26.59463 | -67.13429 | 41153 ft | 535 kts | 174° |
| 2026-05-09 15:30 | 26.52148 | -67.11825 | 41147 ft | 535 kts | 174° |
| 2026-05-09 15:30 | 26.44862 | -67.10228 | 41154 ft | 536 kts | 173° |
| 2026-05-09 15:31 | 26.37523 | -67.08622 | 41151 ft | 536 kts | 173° |
| 2026-05-09 15:31 | 26.30245 | -67.07031 | 41167 ft | 536 kts | 173° |
| 2026-05-09 15:32 | 26.22899 | -67.05427 | 41159 ft | 536 kts | 173° |
| 2026-05-09 15:32 | 26.15564 | -67.03828 | 41147 ft | 537 kts | 173° |
| 2026-05-09 15:33 | 26.08264 | -67.02239 | 41151 ft | 537 kts | 173° |
| 2026-05-09 15:33 | 26.00919 | -67.00641 | 41145 ft | 537 kts | 173° |
| 2026-05-09 15:34 | 25.93568 | -66.99045 | 41149 ft | 537 kts | 173° |
| 2026-05-09 15:34 | 25.86260 | -66.97460 | 41155 ft | 536 kts | 173° |
| 2026-05-09 15:35 | 25.80169 | -66.96140 | 41153 ft | 536 kts | 173° |
| 2026-05-09 15:35 | 25.72838 | -66.94553 | 41155 ft | 535 kts | 173° |
| 2026-05-09 15:36 | 25.65505 | -66.92969 | 41154 ft | 536 kts | 173° |
| 2026-05-09 15:36 | 25.58223 | -66.91397 | 41153 ft | 536 kts | 173° |
| 2026-05-09 15:37 | 25.50903 | -66.89819 | 41150 ft | 535 kts | 173° |
| 2026-05-09 15:37 | 25.43577 | -66.88241 | 41150 ft | 535 kts | 173° |
| 2026-05-09 15:38 | 25.36259 | -66.86667 | 41153 ft | 534 kts | 173° |
| 2026-05-09 15:38 | 25.28991 | -66.85106 | 41153 ft | 535 kts | 172° |
| 2026-05-09 15:39 | 25.21675 | -66.83536 | 41150 ft | 534 kts | 172° |
| 2026-05-09 15:39 | 25.14403 | -66.81979 | 41150 ft | 534 kts | 172° |
| 2026-05-09 15:40 | 25.07099 | -66.80415 | 41149 ft | 534 kts | 172° |
| 2026-05-09 15:40 | 24.99799 | -66.78855 | 41149 ft | 535 kts | 172° |
| 2026-05-09 15:41 | 24.92481 | -66.77293 | 41152 ft | 535 kts | 172° |
| 2026-05-09 15:41 | 24.85222 | -66.75745 | 41150 ft | 534 kts | 172° |
| 2026-05-09 15:42 | 24.77897 | -66.74185 | 41153 ft | 537 kts | 172° |
| 2026-05-09 15:42 | 24.70550 | -66.72622 | 41161 ft | 540 kts | 172° |
| 2026-05-09 15:43 | 24.63152 | -66.71050 | 41153 ft | 540 kts | 172° |
| 2026-05-09 15:43 | 24.55774 | -66.69484 | 41148 ft | 539 kts | 172° |
| 2026-05-09 15:44 | 24.48435 | -66.67929 | 41147 ft | 539 kts | 172° |
| 2026-05-09 15:44 | 24.41068 | -66.66369 | 41144 ft | 538 kts | 172° |
| 2026-05-09 15:45 | 24.33738 | -66.64819 | 41153 ft | 539 kts | 172° |
| 2026-05-09 15:45 | 24.26367 | -66.63262 | 41144 ft | 538 kts | 172° |
| 2026-05-09 15:46 | 24.19018 | -66.61712 | 41140 ft | 538 kts | 172° |
| 2026-05-09 15:46 | 24.11694 | -66.60169 | 41146 ft | 538 kts | 172° |
| 2026-05-09 15:47 | 24.04342 | -66.58621 | 41148 ft | 538 kts | 171° |
| 2026-05-09 15:47 | 23.96968 | -66.57071 | 41148 ft | 537 kts | 171° |
| 2026-05-09 15:48 | 23.89680 | -66.55541 | 41144 ft | 536 kts | 171° |
| 2026-05-09 15:48 | 23.82342 | -66.54002 | 41142 ft | 536 kts | 171° |
| 2026-05-09 15:49 | 23.75008 | -66.52465 | 41148 ft | 535 kts | 171° |
| 2026-05-09 15:49 | 23.67718 | -66.50940 | 41137 ft | 535 kts | 171° |
| 2026-05-09 15:50 | 23.60398 | -66.49410 | 41142 ft | 535 kts | 171° |
| 2026-05-09 15:50 | 23.53079 | -66.47882 | 41148 ft | 535 kts | 171° |
| 2026-05-09 15:51 | 23.45755 | -66.46355 | 41146 ft | 535 kts | 171° |
| 2026-05-09 15:51 | 23.38474 | -66.44838 | 41144 ft | 535 kts | 171° |
| 2026-05-09 15:52 | 23.27486 | -66.42552 | 41141 ft | 534 kts | 171° |
| 2026-05-09 15:53 | 23.20205 | -66.41040 | 41140 ft | 535 kts | 171° |
| 2026-05-09 15:53 | 23.12924 | -66.39529 | 41140 ft | 535 kts | 171° |
| 2026-05-09 15:54 | 23.05607 | -66.38013 | 41141 ft | 535 kts | 171° |
| 2026-05-09 15:54 | 22.98272 | -66.36494 | 41140 ft | 535 kts | 171° |
| 2026-05-09 15:55 | 22.90949 | -66.34980 | 41137 ft | 535 kts | 171° |
| 2026-05-09 15:55 | 22.83682 | -66.33479 | 41133 ft | 534 kts | 171° |
| 2026-05-09 15:56 | 22.76363 | -66.31969 | 41132 ft | 535 kts | 171° |
| 2026-05-09 15:56 | 22.69081 | -66.30468 | 41133 ft | 534 kts | 171° |
| 2026-05-09 15:57 | 22.61757 | -66.28960 | 41128 ft | 535 kts | 171° |
| 2026-05-09 15:57 | 22.54422 | -66.27451 | 41131 ft | 535 kts | 171° |
| 2026-05-09 15:58 | 22.47101 | -66.25948 | 41131 ft | 535 kts | 171° |
| 2026-05-09 15:58 | 22.39828 | -66.24455 | 41131 ft | 535 kts | 171° |
| 2026-05-09 15:59 | 22.32503 | -66.22953 | 41126 ft | 535 kts | 171° |
| 2026-05-09 15:59 | 22.25176 | -66.21453 | 41129 ft | 535 kts | 171° |
| 2026-05-09 16:00 | 22.17882 | -66.19961 | 41124 ft | 535 kts | 171° |
| 2026-05-09 16:00 | 22.10557 | -66.18464 | 41126 ft | 535 kts | 171° |
| 2026-05-09 16:01 | 22.03271 | -66.16977 | 41122 ft | 535 kts | 171° |
| 2026-05-09 16:01 | 21.95952 | -66.15485 | 41124 ft | 535 kts | 171° |
| 2026-05-09 16:02 | 21.88620 | -66.13991 | 41121 ft | 535 kts | 171° |
| 2026-05-09 16:02 | 21.77675 | -66.11764 | 41125 ft | 534 kts | 171° |
| 2026-05-09 16:03 | 21.70419 | -66.10290 | 41119 ft | 533 kts | 171° |
| 2026-05-09 16:03 | 21.63117 | -66.08808 | 41119 ft | 533 kts | 171° |
| 2026-05-09 16:04 | 21.55811 | -66.07327 | 41116 ft | 533 kts | 171° |
| 2026-05-09 16:04 | 21.48587 | -66.05745 | 41132 ft | 535 kts | 163° |
| 2026-05-09 16:05 | 21.45126 | -66.04242 | 41115 ft | 539 kts | 152° |
| 2026-05-09 16:05 | 21.41950 | -66.02078 | 41156 ft | 540 kts | 143° |
| 2026-05-09 16:05 | 21.35887 | -65.97277 | 41139 ft | 540 kts | 143° |
| 2026-05-09 16:06 | 21.29897 | -65.92493 | 41133 ft | 538 kts | 143° |
| 2026-05-09 16:06 | 21.23862 | -65.87712 | 41131 ft | 537 kts | 143° |
| 2026-05-09 16:07 | 21.17896 | -65.82969 | 41131 ft | 537 kts | 143° |
| 2026-05-09 16:07 | 21.11883 | -65.78207 | 41132 ft | 537 kts | 143° |
| 2026-05-09 16:08 | 21.05866 | -65.73438 | 41132 ft | 537 kts | 143° |
| 2026-05-09 16:08 | 20.99847 | -65.68678 | 41125 ft | 537 kts | 143° |
| 2026-05-09 16:09 | 20.93859 | -65.63944 | 41124 ft | 537 kts | 143° |
| 2026-05-09 16:09 | 20.87837 | -65.59189 | 41122 ft | 536 kts | 143° |
| 2026-05-09 16:10 | 20.81824 | -65.54446 | 41127 ft | 537 kts | 143° |
| 2026-05-09 16:10 | 20.75826 | -65.49721 | 41126 ft | 538 kts | 143° |
| 2026-05-09 16:11 | 20.69789 | -65.44969 | 41122 ft | 537 kts | 143° |
| 2026-05-09 16:11 | 20.63779 | -65.40243 | 41124 ft | 539 kts | 143° |
| 2026-05-09 16:12 | 20.57729 | -65.35490 | 41125 ft | 538 kts | 143° |
| 2026-05-09 16:12 | 20.51725 | -65.30778 | 41124 ft | 538 kts | 143° |
| 2026-05-09 16:13 | 20.45674 | -65.26033 | 41122 ft | 538 kts | 143° |
| 2026-05-09 16:13 | 20.39674 | -65.21334 | 41125 ft | 539 kts | 143° |
| 2026-05-09 16:14 | 20.33619 | -65.16596 | 41126 ft | 538 kts | 143° |
| 2026-05-09 16:14 | 20.27575 | -65.11872 | 41124 ft | 538 kts | 143° |
| 2026-05-09 16:15 | 20.21570 | -65.07183 | 41123 ft | 538 kts | 142° |
| 2026-05-09 16:15 | 20.15509 | -65.02454 | 41120 ft | 539 kts | 142° |
| 2026-05-09 16:16 | 20.09450 | -64.97732 | 41121 ft | 539 kts | 142° |
| 2026-05-09 16:16 | 20.03430 | -64.93045 | 41121 ft | 539 kts | 142° |
| 2026-05-09 16:17 | 19.97353 | -64.88318 | 41121 ft | 539 kts | 142° |
| 2026-05-09 16:17 | 19.91338 | -64.83644 | 41120 ft | 538 kts | 142° |
| 2026-05-09 16:18 | 19.85284 | -64.78944 | 41114 ft | 538 kts | 142° |
| 2026-05-09 16:18 | 19.79234 | -64.74251 | 41117 ft | 538 kts | 142° |
| 2026-05-09 16:19 | 19.73167 | -64.69550 | 41117 ft | 539 kts | 142° |
| 2026-05-09 16:19 | 19.67129 | -64.64876 | 41111 ft | 539 kts | 142° |
| 2026-05-09 16:20 | 19.61069 | -64.60190 | 41110 ft | 538 kts | 142° |
| 2026-05-09 16:20 | 19.55056 | -64.55546 | 40856 ft | 525 kts | 142° |
| 2026-05-09 16:21 | 19.52104 | -64.53266 | 40073 ft | 526 kts | 142° |
| 2026-05-09 16:21 | 19.49132 | -64.50971 | 39348 ft | 527 kts | 142° |
| 2026-05-09 16:21 | 19.46206 | -64.48714 | 38659 ft | 526 kts | 142° |
| 2026-05-09 16:21 | 19.43251 | -64.46436 | 37864 ft | 525 kts | 142° |
| 2026-05-09 16:22 | 19.40297 | -64.44159 | 37112 ft | 523 kts | 142° |
| 2026-05-09 16:22 | 19.37356 | -64.41894 | 36368 ft | 520 kts | 142° |
| 2026-05-09 16:22 | 19.34433 | -64.39644 | 35658 ft | 517 kts | 142° |
| 2026-05-09 16:22 | 19.31530 | -64.37409 | 34969 ft | 515 kts | 142° |
| 2026-05-09 16:23 | 19.28655 | -64.35197 | 34298 ft | 515 kts | 142° |
| 2026-05-09 16:23 | 19.25750 | -64.32962 | 33582 ft | 518 kts | 142° |
| 2026-05-09 16:23 | 19.22824 | -64.30713 | 32897 ft | 521 kts | 142° |
| 2026-05-09 16:23 | 19.19913 | -64.28478 | 32236 ft | 520 kts | 142° |
| 2026-05-09 16:24 | 19.16994 | -64.26238 | 31613 ft | 514 kts | 142° |
| 2026-05-09 16:24 | 19.15088 | -64.24775 | 31201 ft | 508 kts | 142° |
| 2026-05-09 16:24 | 19.12246 | -64.22594 | 30614 ft | 499 kts | 142° |
| 2026-05-09 16:24 | 19.09457 | -64.20454 | 30034 ft | 491 kts | 142° |
| 2026-05-09 16:25 | 19.06711 | -64.18349 | 29359 ft | 484 kts | 142° |
| 2026-05-09 16:25 | 19.03998 | -64.16270 | 28697 ft | 477 kts | 142° |
| 2026-05-09 16:25 | 19.01321 | -64.14219 | 28073 ft | 472 kts | 143° |
| 2026-05-09 16:25 | 18.98704 | -64.12215 | 27459 ft | 468 kts | 143° |
| 2026-05-09 16:26 | 18.96071 | -64.10199 | 26850 ft | 465 kts | 143° |
| 2026-05-09 16:26 | 18.93455 | -64.08198 | 26255 ft | 462 kts | 143° |
| 2026-05-09 16:26 | 18.90852 | -64.06207 | 25673 ft | 460 kts | 143° |
| 2026-05-09 16:26 | 18.88259 | -64.04224 | 25104 ft | 457 kts | 143° |
| 2026-05-09 16:27 | 18.85722 | -64.02287 | 24558 ft | 454 kts | 143° |
| 2026-05-09 16:27 | 18.83170 | -64.00336 | 24011 ft | 451 kts | 143° |
| 2026-05-09 16:27 | 18.80626 | -63.98392 | 23432 ft | 448 kts | 143° |
| 2026-05-09 16:27 | 18.78106 | -63.96470 | 22788 ft | 445 kts | 143° |
| 2026-05-09 16:28 | 18.75605 | -63.94562 | 22158 ft | 440 kts | 143° |
| 2026-05-09 16:28 | 18.73161 | -63.92698 | 21550 ft | 435 kts | 143° |
| 2026-05-09 16:28 | 18.70792 | -63.90891 | 20900 ft | 405 kts | 143° |
| 2026-05-09 16:28 | 18.68544 | -63.89179 | 20286 ft | 392 kts | 143° |
| 2026-05-09 16:29 | 18.66355 | -63.87510 | 19671 ft | 383 kts | 143° |
| 2026-05-09 16:29 | 18.64177 | -63.85849 | 19120 ft | 390 kts | 143° |
| 2026-05-09 16:29 | 18.61990 | -63.84184 | 18569 ft | 386 kts | 143° |
| 2026-05-09 16:29 | 18.59891 | -63.82589 | 17947 ft | 370 kts | 143° |
| 2026-05-09 16:30 | 18.57787 | -63.80988 | 17322 ft | 373 kts | 142° |
| 2026-05-09 16:30 | 18.55687 | -63.79388 | 16704 ft | 369 kts | 142° |
| 2026-05-09 16:30 | 18.53625 | -63.77822 | 16090 ft | 355 kts | 142° |
| 2026-05-09 16:30 | 18.51653 | -63.76323 | 15483 ft | 347 kts | 142° |
| 2026-05-09 16:31 | 18.49699 | -63.74837 | 14892 ft | 345 kts | 142° |
| 2026-05-09 16:31 | 18.47782 | -63.73378 | 14323 ft | 342 kts | 142° |
| 2026-05-09 16:31 | 18.45863 | -63.71920 | 13721 ft | 338 kts | 142° |
| 2026-05-09 16:31 | 18.43958 | -63.70475 | 13086 ft | 335 kts | 142° |
| 2026-05-09 16:32 | 18.42079 | -63.69049 | 12478 ft | 331 kts | 142° |
| 2026-05-09 16:32 | 18.40216 | -63.67633 | 11893 ft | 333 kts | 142° |
| 2026-05-09 16:32 | 18.38411 | -63.66143 | 11637 ft | 325 kts | 134° |
| 2026-05-09 16:32 | 18.36811 | -63.64522 | 11424 ft | 323 kts | 134° |
| 2026-05-09 16:33 | 18.35171 | -63.62913 | 11205 ft | 322 kts | 134° |
| 2026-05-09 16:33 | 18.33557 | -63.61324 | 10928 ft | 305 kts | 134° |
| 2026-05-09 16:33 | 18.32044 | -63.59819 | 10555 ft | 295 kts | 134° |
| 2026-05-09 16:33 | 18.30559 | -63.58340 | 10185 ft | 291 kts | 134° |
| 2026-05-09 16:34 | 18.29089 | -63.56879 | 9815 ft | 289 kts | 134° |
| 2026-05-09 16:34 | 18.27626 | -63.55429 | 9419 ft | 287 kts | 134° |
| 2026-05-09 16:34 | 18.26197 | -63.54012 | 9028 ft | 284 kts | 134° |
| 2026-05-09 16:34 | 18.24739 | -63.52563 | 8687 ft | 287 kts | 134° |
| 2026-05-09 16:35 | 18.23294 | -63.51131 | 8316 ft | 280 kts | 134° |
| 2026-05-09 16:35 | 18.21990 | -63.49843 | 7936 ft | 260 kts | 134° |
| 2026-05-09 16:35 | 18.20699 | -63.48565 | 7547 ft | 247 kts | 134° |
| 2026-05-09 16:35 | 18.19525 | -63.47398 | 7180 ft | 242 kts | 134° |
| 2026-05-09 16:36 | 18.18303 | -63.46185 | 6807 ft | 239 kts | 134° |
| 2026-05-09 16:36 | 18.14675 | -63.42592 | 5795 ft | 236 kts | 134° |
| 2026-05-09 16:37 | 18.13491 | -63.41422 | 5448 ft | 230 kts | 134° |
| 2026-05-09 16:37 | 18.12377 | -63.40322 | 5097 ft | 214 kts | 134° |
| 2026-05-09 16:37 | 18.11319 | -63.39274 | 4795 ft | 206 kts | 134° |
| 2026-05-09 16:37 | 18.10275 | -63.38240 | 4581 ft | 205 kts | 134° |
| 2026-05-09 16:38 | 18.09240 | -63.37215 | 4363 ft | 199 kts | 134° |
| 2026-05-09 16:38 | 18.08273 | -63.36262 | 4109 ft | 186 kts | 134° |
| 2026-05-09 16:38 | 18.07346 | -63.35344 | 3873 ft | 184 kts | 133° |
| 2026-05-09 16:38 | 18.06419 | -63.34427 | 3634 ft | 179 kts | 133° |
| 2026-05-09 16:39 | 18.05531 | -63.33550 | 3386 ft | 174 kts | 133° |
| 2026-05-09 16:39 | 18.04655 | -63.32683 | 3130 ft | 172 kts | 133° |
| 2026-05-09 16:39 | 18.03786 | -63.31823 | 2875 ft | 171 kts | 133° |
| 2026-05-09 16:39 | 18.02920 | -63.30967 | 2632 ft | 170 kts | 133° |
| 2026-05-09 16:40 | 18.02132 | -63.30095 | 2577 ft | 167 kts | 121° |
| 2026-05-09 16:40 | 18.01743 | -63.28959 | 2600 ft | 164 kts | 102° |
| 2026-05-09 16:42 | 18.02541 | -63.21852 | 1980 ft | 138 kts | 83° |
| 2026-05-09 16:42 | 18.02690 | -63.20877 | 1861 ft | 136 kts | 84° |
| 2026-05-09 16:42 | 18.02815 | -63.19891 | 1714 ft | 135 kts | 82° |
| 2026-05-09 16:42 | 18.02948 | -63.18912 | 1517 ft | 135 kts | 82° |
| 2026-05-09 16:43 | 18.03082 | -63.17938 | 1378 ft | 134 kts | 84° |
| 2026-05-09 16:43 | 18.03227 | -63.16970 | 1241 ft | 134 kts | 82° |
| 2026-05-09 16:43 | 18.03371 | -63.16011 | 1017 ft | 135 kts | 82° |
| 2026-05-09 16:43 | 18.03508 | -63.15030 | 816 ft | 135 kts | 81° |
| 2026-05-09 16:44 | 18.03641 | -63.14068 | 588 ft | 133 kts | 81° |
| 2026-05-09 16:44 | 18.03781 | -63.13102 | 364 ft | 134 kts | 82° |
| 2026-05-09 16:44 | 18.03910 | -63.12162 | 157 ft | 130 kts | 78° |
| 2026-05-09 16:44 | 18.03988 | -63.11636 | 52 ft | 131 kts | 80° |
| 2026-05-09 16:45 | 18.04026 | -63.11352 | 41 ft | 129 kts | 82° |
| 2026-05-09 16:45 | 18.04047 | -63.11204 | 32 ft | 128 kts | 81° |
| 2026-05-09 16:45 | 18.04060 | -63.11109 | 30 ft | 125 kts | 81° |
| 2026-05-09 16:45 | 18.04149 | -63.10495 | 26 ft | 47 kts | 81° |
| 2026-05-09 16:46 | 18.04190 | -63.10221 | 25 ft | 35 kts | 81° |
| 2026-05-09 16:46 | 18.04217 | -63.10024 | 26 ft | 23 kts | 81° |
| 2026-05-09 16:46 | 18.04255 | -63.09929 | 30 ft | 13 kts | 52° |
| 2026-05-09 16:46 | 18.04278 | -63.09864 | 26 ft | 6 kts | 119° |
| 2026-05-09 16:47 | 18.04263 | -63.09859 | 26 ft | 2 kts | 176° |
| 2026-05-09 16:47 | 18.04236 | -63.09891 | 29 ft | 12 kts | 248° |
| 2026-05-09 16:47 | 18.04220 | -63.10003 | 25 ft | 17 kts | 262° |
| 2026-05-09 16:47 | 18.04201 | -63.10139 | 30 ft | 20 kts | 261° |
| 2026-05-09 16:48 | 18.04180 | -63.10292 | 25 ft | 22 kts | 262° |
| 2026-05-09 16:48 | 18.04156 | -63.10460 | 32 ft | 24 kts | 262° |
| 2026-05-09 16:48 | 18.04130 | -63.10639 | 27 ft | 26 kts | 261° |
| 2026-05-09 16:48 | 18.04107 | -63.10802 | 31 ft | 19 kts | 262° |
| 2026-05-09 16:49 | 18.04087 | -63.10951 | 26 ft | 21 kts | 262° |
| 2026-05-09 16:49 | 18.04065 | -63.11102 | 28 ft | 20 kts | 261° |
| 2026-05-09 16:49 | 18.04047 | -63.11239 | 26 ft | 11 kts | 273° |
| 2026-05-09 16:50 | 18.04173 | -63.11303 | 27 ft | 12 kts | 350° |
| 2026-05-09 16:50 | 18.04230 | -63.11330 | 27 ft | 6 kts | 315° |
| 2026-05-09 16:50 | 18.04279 | -63.11354 | 27 ft | 6 kts | 346° |
| 2026-05-09 16:50 | 18.04308 | -63.11359 | 27 ft | 2 kts | 352° |
| 2026-05-09 16:51 | 18.04320 | -63.11361 | 27 ft | 1 kts | 352° |
| 2026-05-09 16:51 | 18.04327 | -63.11362 | 26 ft | 0 kts | 352° |